sensor_id;sensor_type;location;lat;lon;timestamp;P1;durP1;ratioP1;P2;durP2;ratioP2
56081;SDS011;41957;52.060;5.138;2022-12-07T00:00:27;8.52;;;2.30;;
56081;SDS011;41957;52.060;5.138;2022-12-07T00:02:53;10.40;;;2.38;;
56081;SDS011;41957;52.060;5.138;2022-12-07T00:05:18;6.82;;;1.95;;
56081;SDS011;41957;52.060;5.138;2022-12-07T00:07:43;8.55;;;2.17;;
56081;SDS011;41957;52.060;5.138;2022-12-07T00:10:09;9.18;;;2.28;;
56081;SDS011;41957;52.060;5.138;2022-12-07T00:12:34;9.00;;;2.50;;
56081;SDS011;41957;52.060;5.138;2022-12-07T00:14:59;7.82;;;2.15;;
56081;SDS011;41957;52.060;5.138;2022-12-07T00:17:25;9.27;;;2.20;;
56081;SDS011;41957;52.060;5.138;2022-12-07T00:19:50;8.73;;;2.35;;
56081;SDS011;41957;52.060;5.138;2022-12-07T00:22:15;9.55;;;2.45;;
56081;SDS011;41957;52.060;5.138;2022-12-07T00:24:41;9.30;;;2.50;;
56081;SDS011;41957;52.060;5.138;2022-12-07T00:27:06;9.73;;;2.38;;
56081;SDS011;41957;52.060;5.138;2022-12-07T00:29:31;9.07;;;2.25;;
56081;SDS011;41957;52.060;5.138;2022-12-07T00:31:57;9.40;;;2.35;;
56081;SDS011;41957;52.060;5.138;2022-12-07T00:34:22;8.25;;;1.90;;
56081;SDS011;41957;52.060;5.138;2022-12-07T00:36:47;8.10;;;2.15;;
56081;SDS011;41957;52.060;5.138;2022-12-07T00:39:14;8.60;;;2.30;;
56081;SDS011;41957;52.060;5.138;2022-12-07T00:41:39;8.15;;;2.10;;
56081;SDS011;41957;52.060;5.138;2022-12-07T00:44:05;8.88;;;2.33;;
56081;SDS011;41957;52.060;5.138;2022-12-07T00:46:30;9.07;;;2.35;;
56081;SDS011;41957;52.060;5.138;2022-12-07T00:48:55;8.45;;;2.10;;
56081;SDS011;41957;52.060;5.138;2022-12-07T00:51:22;7.38;;;1.90;;
56081;SDS011;41957;52.060;5.138;2022-12-07T00:53:48;8.57;;;2.20;;
56081;SDS011;41957;52.060;5.138;2022-12-07T00:56:15;7.32;;;2.00;;
56081;SDS011;41957;52.060;5.138;2022-12-07T00:58:49;9.85;;;2.40;;
56081;SDS011;41957;52.060;5.138;2022-12-07T01:01:25;9.07;;;2.10;;
56081;SDS011;41957;52.060;5.138;2022-12-07T01:03:52;8.60;;;2.22;;
56081;SDS011;41957;52.060;5.138;2022-12-07T01:06:18;8.50;;;2.10;;
56081;SDS011;41957;52.060;5.138;2022-12-07T01:08:45;9.27;;;2.42;;
56081;SDS011;41957;52.060;5.138;2022-12-07T01:11:14;8.05;;;2.40;;
56081;SDS011;41957;52.060;5.138;2022-12-07T01:13:41;10.65;;;2.38;;
56081;SDS011;41957;52.060;5.138;2022-12-07T01:16:07;7.65;;;2.20;;
56081;SDS011;41957;52.060;5.138;2022-12-07T01:18:35;9.00;;;2.20;;
56081;SDS011;41957;52.060;5.138;2022-12-07T01:21:20;10.38;;;2.38;;
56081;SDS011;41957;52.060;5.138;2022-12-07T01:23:48;10.25;;;2.35;;
56081;SDS011;41957;52.060;5.138;2022-12-07T01:26:14;10.55;;;2.47;;
56081;SDS011;41957;52.060;5.138;2022-12-07T01:28:42;9.73;;;2.47;;
56081;SDS011;41957;52.060;5.138;2022-12-07T01:31:09;10.18;;;2.42;;
56081;SDS011;41957;52.060;5.138;2022-12-07T01:33:37;9.63;;;2.35;;
56081;SDS011;41957;52.060;5.138;2022-12-07T01:38:41;9.15;;;2.42;;
56081;SDS011;41957;52.060;5.138;2022-12-07T01:41:07;10.68;;;2.40;;
56081;SDS011;41957;52.060;5.138;2022-12-07T01:43:33;10.32;;;2.53;;
56081;SDS011;41957;52.060;5.138;2022-12-07T01:45:59;10.20;;;2.40;;
56081;SDS011;41957;52.060;5.138;2022-12-07T01:48:29;10.68;;;2.42;;
56081;SDS011;41957;52.060;5.138;2022-12-07T01:50:56;8.80;;;2.28;;
56081;SDS011;41957;52.060;5.138;2022-12-07T01:53:25;11.57;;;2.53;;
56081;SDS011;41957;52.060;5.138;2022-12-07T01:55:54;10.90;;;2.47;;
56081;SDS011;41957;52.060;5.138;2022-12-07T01:58:22;10.32;;;2.50;;
56081;SDS011;41957;52.060;5.138;2022-12-07T02:00:49;9.30;;;2.30;;
56081;SDS011;41957;52.060;5.138;2022-12-07T02:05:40;9.68;;;2.42;;
56081;SDS011;41957;52.060;5.138;2022-12-07T02:08:06;11.55;;;2.65;;
56081;SDS011;41957;52.060;5.138;2022-12-07T02:10:32;9.40;;;2.38;;
56081;SDS011;41957;52.060;5.138;2022-12-07T02:13:05;10.45;;;2.60;;
56081;SDS011;41957;52.060;5.138;2022-12-07T02:18:20;8.75;;;2.30;;
56081;SDS011;41957;52.060;5.138;2022-12-07T02:21:02;11.07;;;2.40;;
56081;SDS011;41957;52.060;5.138;2022-12-07T02:23:40;10.27;;;2.45;;
56081;SDS011;41957;52.060;5.138;2022-12-07T02:26:36;8.32;;;2.17;;
56081;SDS011;41957;52.060;5.138;2022-12-07T02:29:26;10.68;;;2.40;;
56081;SDS011;41957;52.060;5.138;2022-12-07T02:32:16;8.88;;;2.03;;
56081;SDS011;41957;52.060;5.138;2022-12-07T02:34:48;9.23;;;2.33;;
56081;SDS011;41957;52.060;5.138;2022-12-07T02:40:06;9.70;;;2.67;;
56081;SDS011;41957;52.060;5.138;2022-12-07T02:42:40;10.50;;;2.35;;
56081;SDS011;41957;52.060;5.138;2022-12-07T02:45:12;11.20;;;2.58;;
56081;SDS011;41957;52.060;5.138;2022-12-07T02:47:40;11.45;;;2.90;;
56081;SDS011;41957;52.060;5.138;2022-12-07T02:50:07;8.63;;;2.20;;
56081;SDS011;41957;52.060;5.138;2022-12-07T02:52:33;8.35;;;2.45;;
56081;SDS011;41957;52.060;5.138;2022-12-07T02:54:58;10.23;;;2.30;;
56081;SDS011;41957;52.060;5.138;2022-12-07T03:10:54;10.47;;;2.57;;
56081;SDS011;41957;52.060;5.138;2022-12-07T03:16:40;11.07;;;2.20;;
56081;SDS011;41957;52.060;5.138;2022-12-07T03:19:13;11.05;;;2.17;;
56081;SDS011;41957;52.060;5.138;2022-12-07T03:21:53;10.57;;;2.20;;
56081;SDS011;41957;52.060;5.138;2022-12-07T03:24:27;9.70;;;2.25;;
56081;SDS011;41957;52.060;5.138;2022-12-07T03:27:04;10.90;;;2.80;;
56081;SDS011;41957;52.060;5.138;2022-12-07T03:29:36;10.70;;;2.70;;
56081;SDS011;41957;52.060;5.138;2022-12-07T03:32:08;9.25;;;2.30;;
56081;SDS011;41957;52.060;5.138;2022-12-07T03:34:49;9.10;;;2.30;;
56081;SDS011;41957;52.060;5.138;2022-12-07T03:37:34;11.48;;;2.40;;
56081;SDS011;41957;52.060;5.138;2022-12-07T03:40:14;10.35;;;2.50;;
56081;SDS011;41957;52.060;5.138;2022-12-07T03:42:44;10.70;;;2.42;;
56081;SDS011;41957;52.060;5.138;2022-12-07T03:45:11;10.77;;;2.70;;
56081;SDS011;41957;52.060;5.138;2022-12-07T03:47:41;8.85;;;2.60;;
56081;SDS011;41957;52.060;5.138;2022-12-07T03:50:38;11.63;;;2.67;;
56081;SDS011;41957;52.060;5.138;2022-12-07T03:53:14;11.63;;;2.65;;
56081;SDS011;41957;52.060;5.138;2022-12-07T03:55:44;10.35;;;2.50;;
56081;SDS011;41957;52.060;5.138;2022-12-07T03:58:14;9.23;;;2.58;;
56081;SDS011;41957;52.060;5.138;2022-12-07T04:00:42;9.93;;;2.40;;
56081;SDS011;41957;52.060;5.138;2022-12-07T04:03:08;9.65;;;2.65;;
56081;SDS011;41957;52.060;5.138;2022-12-07T04:05:34;9.88;;;2.70;;
56081;SDS011;41957;52.060;5.138;2022-12-07T04:08:00;8.43;;;2.35;;
56081;SDS011;41957;52.060;5.138;2022-12-07T04:10:25;8.60;;;2.25;;
56081;SDS011;41957;52.060;5.138;2022-12-07T04:12:50;8.80;;;2.40;;
56081;SDS011;41957;52.060;5.138;2022-12-07T04:15:16;8.77;;;2.30;;
56081;SDS011;41957;52.060;5.138;2022-12-07T04:17:41;10.50;;;2.58;;
56081;SDS011;41957;52.060;5.138;2022-12-07T04:20:07;10.18;;;2.65;;
56081;SDS011;41957;52.060;5.138;2022-12-07T04:22:33;10.32;;;2.30;;
56081;SDS011;41957;52.060;5.138;2022-12-07T04:24:58;12.25;;;2.55;;
56081;SDS011;41957;52.060;5.138;2022-12-07T04:27:23;10.73;;;2.60;;
56081;SDS011;41957;52.060;5.138;2022-12-07T04:29:49;9.43;;;2.20;;
56081;SDS011;41957;52.060;5.138;2022-12-07T04:32:14;10.07;;;2.30;;
56081;SDS011;41957;52.060;5.138;2022-12-07T04:34:39;11.18;;;2.30;;
56081;SDS011;41957;52.060;5.138;2022-12-07T04:37:05;8.93;;;2.60;;
56081;SDS011;41957;52.060;5.138;2022-12-07T04:39:31;8.75;;;2.47;;
56081;SDS011;41957;52.060;5.138;2022-12-07T04:41:57;9.65;;;2.40;;
56081;SDS011;41957;52.060;5.138;2022-12-07T04:44:24;8.10;;;2.42;;
56081;SDS011;41957;52.060;5.138;2022-12-07T04:46:51;9.50;;;2.45;;
56081;SDS011;41957;52.060;5.138;2022-12-07T04:49:17;7.95;;;2.25;;
56081;SDS011;41957;52.060;5.138;2022-12-07T04:51:43;8.68;;;2.20;;
56081;SDS011;41957;52.060;5.138;2022-12-07T04:54:09;8.10;;;2.10;;
56081;SDS011;41957;52.060;5.138;2022-12-07T04:56:34;8.57;;;2.45;;
56081;SDS011;41957;52.060;5.138;2022-12-07T04:59:00;8.68;;;2.25;;
56081;SDS011;41957;52.060;5.138;2022-12-07T05:01:26;6.70;;;1.88;;
56081;SDS011;41957;52.060;5.138;2022-12-07T05:03:51;6.90;;;2.05;;
56081;SDS011;41957;52.060;5.138;2022-12-07T05:06:17;9.90;;;2.30;;
56081;SDS011;41957;52.060;5.138;2022-12-07T05:08:42;8.07;;;2.10;;
56081;SDS011;41957;52.060;5.138;2022-12-07T05:11:08;7.95;;;1.90;;
56081;SDS011;41957;52.060;5.138;2022-12-07T05:13:34;8.88;;;2.10;;
56081;SDS011;41957;52.060;5.138;2022-12-07T05:16:01;9.20;;;2.05;;
56081;SDS011;41957;52.060;5.138;2022-12-07T05:18:26;8.82;;;2.10;;
56081;SDS011;41957;52.060;5.138;2022-12-07T05:20:52;9.68;;;2.25;;
56081;SDS011;41957;52.060;5.138;2022-12-07T05:23:17;7.35;;;2.05;;
56081;SDS011;41957;52.060;5.138;2022-12-07T05:25:43;6.97;;;1.90;;
56081;SDS011;41957;52.060;5.138;2022-12-07T05:28:09;9.65;;;2.03;;
56081;SDS011;41957;52.060;5.138;2022-12-07T05:30:34;7.65;;;2.00;;
56081;SDS011;41957;52.060;5.138;2022-12-07T05:32:59;8.43;;;1.95;;
56081;SDS011;41957;52.060;5.138;2022-12-07T05:35:25;8.77;;;2.00;;
56081;SDS011;41957;52.060;5.138;2022-12-07T05:37:50;7.22;;;1.92;;
56081;SDS011;41957;52.060;5.138;2022-12-07T05:40:16;6.47;;;2.00;;
56081;SDS011;41957;52.060;5.138;2022-12-07T05:42:42;8.10;;;2.17;;
56081;SDS011;41957;52.060;5.138;2022-12-07T05:45:08;9.05;;;2.20;;
56081;SDS011;41957;52.060;5.138;2022-12-07T05:47:34;9.32;;;1.98;;
56081;SDS011;41957;52.060;5.138;2022-12-07T05:50:00;9.23;;;2.20;;
56081;SDS011;41957;52.060;5.138;2022-12-07T05:52:26;10.48;;;2.10;;
56081;SDS011;41957;52.060;5.138;2022-12-07T05:54:52;6.82;;;1.90;;
56081;SDS011;41957;52.060;5.138;2022-12-07T05:57:17;7.68;;;1.80;;
56081;SDS011;41957;52.060;5.138;2022-12-07T05:59:43;8.88;;;2.00;;
56081;SDS011;41957;52.060;5.138;2022-12-07T06:02:09;6.53;;;1.90;;
56081;SDS011;41957;52.060;5.138;2022-12-07T06:04:37;10.15;;;2.33;;
56081;SDS011;41957;52.060;5.138;2022-12-07T06:07:05;6.43;;;1.77;;
56081;SDS011;41957;52.060;5.138;2022-12-07T06:09:31;8.25;;;2.20;;
56081;SDS011;41957;52.060;5.138;2022-12-07T06:11:57;7.72;;;2.00;;
56081;SDS011;41957;52.060;5.138;2022-12-07T06:14:41;14.32;;;2.30;;
56081;SDS011;41957;52.060;5.138;2022-12-07T06:17:07;10.05;;;2.30;;
56081;SDS011;41957;52.060;5.138;2022-12-07T06:19:32;10.00;;;2.00;;
56081;SDS011;41957;52.060;5.138;2022-12-07T06:21:58;8.10;;;2.00;;
56081;SDS011;41957;52.060;5.138;2022-12-07T06:24:24;8.57;;;1.90;;
56081;SDS011;41957;52.060;5.138;2022-12-07T06:26:50;10.88;;;1.90;;
56081;SDS011;41957;52.060;5.138;2022-12-07T06:29:16;8.18;;;1.90;;
56081;SDS011;41957;52.060;5.138;2022-12-07T06:31:42;8.13;;;2.05;;
56081;SDS011;41957;52.060;5.138;2022-12-07T06:34:14;9.35;;;2.00;;
56081;SDS011;41957;52.060;5.138;2022-12-07T06:36:41;9.88;;;2.03;;
56081;SDS011;41957;52.060;5.138;2022-12-07T06:39:07;8.43;;;1.98;;
56081;SDS011;41957;52.060;5.138;2022-12-07T06:41:34;8.82;;;1.70;;
56081;SDS011;41957;52.060;5.138;2022-12-07T06:44:04;8.38;;;1.83;;
56081;SDS011;41957;52.060;5.138;2022-12-07T06:46:30;9.85;;;1.88;;
56081;SDS011;41957;52.060;5.138;2022-12-07T06:48:55;6.60;;;1.90;;
56081;SDS011;41957;52.060;5.138;2022-12-07T06:51:21;11.52;;;2.40;;
56081;SDS011;41957;52.060;5.138;2022-12-07T06:53:47;10.45;;;1.98;;
56081;SDS011;41957;52.060;5.138;2022-12-07T06:56:12;7.57;;;1.77;;
56081;SDS011;41957;52.060;5.138;2022-12-07T06:58:37;8.65;;;1.92;;
56081;SDS011;41957;52.060;5.138;2022-12-07T07:01:08;10.68;;;2.20;;
56081;SDS011;41957;52.060;5.138;2022-12-07T07:03:36;8.43;;;2.00;;
56081;SDS011;41957;52.060;5.138;2022-12-07T07:06:02;9.13;;;2.03;;
56081;SDS011;41957;52.060;5.138;2022-12-07T07:08:28;13.07;;;2.20;;
56081;SDS011;41957;52.060;5.138;2022-12-07T07:10:53;9.73;;;2.13;;
56081;SDS011;41957;52.060;5.138;2022-12-07T07:13:18;8.68;;;2.05;;
56081;SDS011;41957;52.060;5.138;2022-12-07T07:15:44;9.55;;;2.10;;
56081;SDS011;41957;52.060;5.138;2022-12-07T07:18:09;9.70;;;2.10;;
56081;SDS011;41957;52.060;5.138;2022-12-07T07:20:34;7.30;;;1.70;;
56081;SDS011;41957;52.060;5.138;2022-12-07T07:23:00;11.50;;;2.13;;
56081;SDS011;41957;52.060;5.138;2022-12-07T07:25:26;9.65;;;2.35;;
56081;SDS011;41957;52.060;5.138;2022-12-07T07:27:51;8.85;;;2.00;;
56081;SDS011;41957;52.060;5.138;2022-12-07T07:30:16;9.23;;;2.28;;
56081;SDS011;41957;52.060;5.138;2022-12-07T07:32:42;10.90;;;2.00;;
56081;SDS011;41957;52.060;5.138;2022-12-07T07:35:07;8.38;;;2.05;;
56081;SDS011;41957;52.060;5.138;2022-12-07T07:37:33;7.70;;;1.88;;
56081;SDS011;41957;52.060;5.138;2022-12-07T07:39:58;8.18;;;1.85;;
56081;SDS011;41957;52.060;5.138;2022-12-07T07:42:24;8.75;;;2.22;;
56081;SDS011;41957;52.060;5.138;2022-12-07T07:44:49;7.15;;;1.80;;
56081;SDS011;41957;52.060;5.138;2022-12-07T07:47:14;8.85;;;2.10;;
56081;SDS011;41957;52.060;5.138;2022-12-07T07:49:40;6.95;;;1.92;;
56081;SDS011;41957;52.060;5.138;2022-12-07T07:52:05;9.70;;;1.95;;
56081;SDS011;41957;52.060;5.138;2022-12-07T07:54:31;9.23;;;2.17;;
56081;SDS011;41957;52.060;5.138;2022-12-07T07:56:57;10.73;;;2.40;;
56081;SDS011;41957;52.060;5.138;2022-12-07T07:59:22;9.65;;;2.35;;
56081;SDS011;41957;52.060;5.138;2022-12-07T08:01:48;10.60;;;2.30;;
56081;SDS011;41957;52.060;5.138;2022-12-07T08:04:13;10.50;;;2.10;;
56081;SDS011;41957;52.060;5.138;2022-12-07T08:06:38;7.97;;;2.10;;
56081;SDS011;41957;52.060;5.138;2022-12-07T08:09:04;10.13;;;2.50;;
56081;SDS011;41957;52.060;5.138;2022-12-07T08:11:30;7.97;;;1.80;;
56081;SDS011;41957;52.060;5.138;2022-12-07T08:13:56;9.60;;;2.17;;
56081;SDS011;41957;52.060;5.138;2022-12-07T08:16:21;9.02;;;1.90;;
56081;SDS011;41957;52.060;5.138;2022-12-07T08:18:47;7.43;;;2.03;;
56081;SDS011;41957;52.060;5.138;2022-12-07T08:21:13;9.45;;;2.20;;
56081;SDS011;41957;52.060;5.138;2022-12-07T08:23:39;8.00;;;1.92;;
56081;SDS011;41957;52.060;5.138;2022-12-07T08:26:06;6.68;;;1.95;;
56081;SDS011;41957;52.060;5.138;2022-12-07T08:28:33;6.93;;;1.70;;
56081;SDS011;41957;52.060;5.138;2022-12-07T08:31:17;10.65;;;1.90;;
56081;SDS011;41957;52.060;5.138;2022-12-07T08:33:45;8.93;;;2.08;;
56081;SDS011;41957;52.060;5.138;2022-12-07T08:36:11;7.80;;;1.90;;
56081;SDS011;41957;52.060;5.138;2022-12-07T08:38:38;9.75;;;2.00;;
56081;SDS011;41957;52.060;5.138;2022-12-07T08:41:05;8.52;;;1.95;;
56081;SDS011;41957;52.060;5.138;2022-12-07T08:43:31;8.80;;;2.17;;
56081;SDS011;41957;52.060;5.138;2022-12-07T08:46:11;9.25;;;2.00;;
56081;SDS011;41957;52.060;5.138;2022-12-07T08:48:44;8.50;;;1.80;;
56081;SDS011;41957;52.060;5.138;2022-12-07T08:51:31;7.70;;;1.83;;
56081;SDS011;41957;52.060;5.138;2022-12-07T08:53:57;8.65;;;1.90;;
56081;SDS011;41957;52.060;5.138;2022-12-07T08:56:26;7.82;;;1.90;;
56081;SDS011;41957;52.060;5.138;2022-12-07T08:58:52;9.18;;;1.98;;
56081;SDS011;41957;52.060;5.138;2022-12-07T09:01:18;8.25;;;1.83;;
56081;SDS011;41957;52.060;5.138;2022-12-07T09:03:43;6.97;;;1.83;;
56081;SDS011;41957;52.060;5.138;2022-12-07T09:06:08;6.10;;;1.73;;
56081;SDS011;41957;52.060;5.138;2022-12-07T09:08:38;7.13;;;1.80;;
56081;SDS011;41957;52.060;5.138;2022-12-07T09:11:07;9.45;;;2.00;;
56081;SDS011;41957;52.060;5.138;2022-12-07T09:13:32;8.20;;;1.83;;
56081;SDS011;41957;52.060;5.138;2022-12-07T09:15:57;7.75;;;2.03;;
56081;SDS011;41957;52.060;5.138;2022-12-07T09:18:23;7.07;;;1.67;;
56081;SDS011;41957;52.060;5.138;2022-12-07T09:20:49;6.63;;;1.80;;
56081;SDS011;41957;52.060;5.138;2022-12-07T09:23:15;7.20;;;2.00;;
56081;SDS011;41957;52.060;5.138;2022-12-07T09:25:40;10.60;;;2.10;;
56081;SDS011;41957;52.060;5.138;2022-12-07T09:28:05;11.20;;;2.08;;
56081;SDS011;41957;52.060;5.138;2022-12-07T09:30:31;9.20;;;2.00;;
56081;SDS011;41957;52.060;5.138;2022-12-07T09:32:56;7.95;;;2.00;;
56081;SDS011;41957;52.060;5.138;2022-12-07T09:35:23;9.07;;;2.00;;
56081;SDS011;41957;52.060;5.138;2022-12-07T09:37:49;7.53;;;1.70;;
56081;SDS011;41957;52.060;5.138;2022-12-07T09:40:15;6.53;;;1.60;;
56081;SDS011;41957;52.060;5.138;2022-12-07T09:42:44;6.13;;;1.60;;
56081;SDS011;41957;52.060;5.138;2022-12-07T09:45:14;8.80;;;1.90;;
56081;SDS011;41957;52.060;5.138;2022-12-07T09:47:56;7.57;;;1.90;;
56081;SDS011;41957;52.060;5.138;2022-12-07T09:50:23;8.23;;;2.00;;
56081;SDS011;41957;52.060;5.138;2022-12-07T09:52:51;9.73;;;2.03;;
56081;SDS011;41957;52.060;5.138;2022-12-07T09:55:26;7.88;;;2.08;;
56081;SDS011;41957;52.060;5.138;2022-12-07T09:57:53;7.88;;;1.90;;
56081;SDS011;41957;52.060;5.138;2022-12-07T10:00:20;10.23;;;1.95;;
56081;SDS011;41957;52.060;5.138;2022-12-07T10:05:28;6.60;;;1.90;;
56081;SDS011;41957;52.060;5.138;2022-12-07T10:07:56;9.20;;;1.90;;
56081;SDS011;41957;52.060;5.138;2022-12-07T10:10:26;10.55;;;2.00;;
56081;SDS011;41957;52.060;5.138;2022-12-07T10:13:02;10.25;;;1.83;;
56081;SDS011;41957;52.060;5.138;2022-12-07T10:18:27;21.08;;;2.42;;
56081;SDS011;41957;52.060;5.138;2022-12-07T10:21:05;9.05;;;1.90;;
56081;SDS011;41957;52.060;5.138;2022-12-07T10:23:32;10.23;;;2.00;;
56081;SDS011;41957;52.060;5.138;2022-12-07T10:25:58;10.82;;;2.15;;
56081;SDS011;41957;52.060;5.138;2022-12-07T10:28:27;9.75;;;2.10;;
56081;SDS011;41957;52.060;5.138;2022-12-07T10:31:15;8.05;;;1.75;;
56081;SDS011;41957;52.060;5.138;2022-12-07T10:33:49;7.22;;;1.77;;
56081;SDS011;41957;52.060;5.138;2022-12-07T10:39:15;6.97;;;1.73;;
56081;SDS011;41957;52.060;5.138;2022-12-07T10:41:56;8.57;;;1.92;;
56081;SDS011;41957;52.060;5.138;2022-12-07T10:44:33;10.98;;;2.05;;
56081;SDS011;41957;52.060;5.138;2022-12-07T10:55:26;8.65;;;2.05;;
56081;SDS011;41957;52.060;5.138;2022-12-07T10:58:00;9.95;;;1.90;;
56081;SDS011;41957;52.060;5.138;2022-12-07T11:00:58;8.55;;;1.90;;
56081;SDS011;41957;52.060;5.138;2022-12-07T11:09:59;6.55;;;1.88;;
56081;SDS011;41957;52.060;5.138;2022-12-07T11:25:41;7.77;;;1.70;;
56081;SDS011;41957;52.060;5.138;2022-12-07T11:28:34;8.55;;;1.90;;
56081;SDS011;41957;52.060;5.138;2022-12-07T11:34:32;6.60;;;1.50;;
56081;SDS011;41957;52.060;5.138;2022-12-07T11:36:58;8.18;;;1.70;;
56081;SDS011;41957;52.060;5.138;2022-12-07T11:39:33;7.20;;;1.80;;
56081;SDS011;41957;52.060;5.138;2022-12-07T11:42:27;10.05;;;2.17;;
56081;SDS011;41957;52.060;5.138;2022-12-07T11:45:03;7.80;;;1.60;;
56081;SDS011;41957;52.060;5.138;2022-12-07T11:50:41;8.90;;;2.10;;
56081;SDS011;41957;52.060;5.138;2022-12-07T11:53:14;8.27;;;1.80;;
56081;SDS011;41957;52.060;5.138;2022-12-07T11:55:55;7.40;;;1.83;;
56081;SDS011;41957;52.060;5.138;2022-12-07T12:00:55;7.28;;;1.73;;
56081;SDS011;41957;52.060;5.138;2022-12-07T12:03:52;6.55;;;1.63;;
56081;SDS011;41957;52.060;5.138;2022-12-07T12:06:21;6.05;;;1.63;;
56081;SDS011;41957;52.060;5.138;2022-12-07T12:08:49;7.35;;;1.60;;
56081;SDS011;41957;52.060;5.138;2022-12-07T12:14:13;6.40;;;1.45;;
56081;SDS011;41957;52.060;5.138;2022-12-07T12:20:21;8.57;;;1.55;;
56081;SDS011;41957;52.060;5.138;2022-12-07T12:25:24;6.75;;;1.60;;
56081;SDS011;41957;52.060;5.138;2022-12-07T12:27:54;13.70;;;2.28;;
56081;SDS011;41957;52.060;5.138;2022-12-07T12:30:29;5.82;;;1.70;;
56081;SDS011;41957;52.060;5.138;2022-12-07T12:33:01;18.00;;;2.45;;
56081;SDS011;41957;52.060;5.138;2022-12-07T12:35:39;8.18;;;1.80;;
56081;SDS011;41957;52.060;5.138;2022-12-07T12:40:56;57.45;;;5.28;;
56081;SDS011;41957;52.060;5.138;2022-12-07T12:43:39;12.80;;;2.38;;
56081;SDS011;41957;52.060;5.138;2022-12-07T12:51:43;9.95;;;1.80;;
56081;SDS011;41957;52.060;5.138;2022-12-07T12:54:19;9.00;;;1.77;;
56081;SDS011;41957;52.060;5.138;2022-12-07T13:02:27;10.13;;;2.03;;
56081;SDS011;41957;52.060;5.138;2022-12-07T13:05:37;8.27;;;1.80;;
56081;SDS011;41957;52.060;5.138;2022-12-07T13:18:01;9.02;;;1.98;;
56081;SDS011;41957;52.060;5.138;2022-12-07T13:20:40;8.20;;;1.73;;
56081;SDS011;41957;52.060;5.138;2022-12-07T13:23:09;11.27;;;1.80;;
56081;SDS011;41957;52.060;5.138;2022-12-07T13:25:42;8.60;;;1.90;;
56081;SDS011;41957;52.060;5.138;2022-12-07T13:28:15;5.75;;;1.60;;
56081;SDS011;41957;52.060;5.138;2022-12-07T13:30:47;8.73;;;1.90;;
56081;SDS011;41957;52.060;5.138;2022-12-07T13:33:23;10.13;;;1.92;;
56081;SDS011;41957;52.060;5.138;2022-12-07T13:35:55;8.70;;;1.80;;
56081;SDS011;41957;52.060;5.138;2022-12-07T13:43:45;7.75;;;1.67;;
56081;SDS011;41957;52.060;5.138;2022-12-07T13:46:13;11.30;;;1.90;;
56081;SDS011;41957;52.060;5.138;2022-12-07T13:51:16;8.02;;;1.70;;
56081;SDS011;41957;52.060;5.138;2022-12-07T13:53:48;7.47;;;1.60;;
56081;SDS011;41957;52.060;5.138;2022-12-07T13:56:15;7.30;;;1.67;;
56081;SDS011;41957;52.060;5.138;2022-12-07T13:58:41;6.05;;;1.60;;
56081;SDS011;41957;52.060;5.138;2022-12-07T14:01:06;7.15;;;1.80;;
56081;SDS011;41957;52.060;5.138;2022-12-07T14:03:33;9.70;;;1.70;;
56081;SDS011;41957;52.060;5.138;2022-12-07T14:06:04;6.13;;;1.45;;
56081;SDS011;41957;52.060;5.138;2022-12-07T14:08:41;6.45;;;1.38;;
56081;SDS011;41957;52.060;5.138;2022-12-07T14:11:09;6.43;;;1.50;;
56081;SDS011;41957;52.060;5.138;2022-12-07T14:14:01;5.00;;;1.48;;
56081;SDS011;41957;52.060;5.138;2022-12-07T14:18:57;6.85;;;1.70;;
56081;SDS011;41957;52.060;5.138;2022-12-07T14:21:29;6.15;;;1.60;;
56081;SDS011;41957;52.060;5.138;2022-12-07T14:26:38;9.07;;;1.77;;
56081;SDS011;41957;52.060;5.138;2022-12-07T14:31:53;5.55;;;1.58;;
56081;SDS011;41957;52.060;5.138;2022-12-07T14:34:19;5.35;;;1.40;;
56081;SDS011;41957;52.060;5.138;2022-12-07T14:36:46;6.43;;;1.52;;
56081;SDS011;41957;52.060;5.138;2022-12-07T14:39:11;6.93;;;1.40;;
56081;SDS011;41957;52.060;5.138;2022-12-07T14:41:37;5.55;;;1.60;;
56081;SDS011;41957;52.060;5.138;2022-12-07T14:44:18;4.50;;;1.30;;
56081;SDS011;41957;52.060;5.138;2022-12-07T14:46:45;6.50;;;1.63;;
56081;SDS011;41957;52.060;5.138;2022-12-07T14:49:11;4.85;;;1.20;;
56081;SDS011;41957;52.060;5.138;2022-12-07T14:51:37;5.60;;;1.40;;
56081;SDS011;41957;52.060;5.138;2022-12-07T14:54:05;6.47;;;1.45;;
56081;SDS011;41957;52.060;5.138;2022-12-07T14:56:36;2.53;;;1.20;;
56081;SDS011;41957;52.060;5.138;2022-12-07T14:59:01;6.65;;;1.45;;
56081;SDS011;41957;52.060;5.138;2022-12-07T15:01:27;5.82;;;1.42;;
56081;SDS011;41957;52.060;5.138;2022-12-07T15:03:52;7.30;;;1.65;;
56081;SDS011;41957;52.060;5.138;2022-12-07T15:06:17;5.03;;;1.40;;
56081;SDS011;41957;52.060;5.138;2022-12-07T15:08:43;7.60;;;1.58;;
56081;SDS011;41957;52.060;5.138;2022-12-07T15:11:13;5.40;;;1.45;;
56081;SDS011;41957;52.060;5.138;2022-12-07T15:13:39;4.60;;;1.35;;
56081;SDS011;41957;52.060;5.138;2022-12-07T15:16:23;5.07;;;1.20;;
56081;SDS011;41957;52.060;5.138;2022-12-07T15:18:48;4.93;;;1.45;;
56081;SDS011;41957;52.060;5.138;2022-12-07T15:21:14;5.75;;;1.25;;
56081;SDS011;41957;52.060;5.138;2022-12-07T15:23:40;7.70;;;1.58;;
56081;SDS011;41957;52.060;5.138;2022-12-07T15:26:06;5.53;;;1.25;;
56081;SDS011;41957;52.060;5.138;2022-12-07T15:28:32;6.68;;;1.55;;
56081;SDS011;41957;52.060;5.138;2022-12-07T15:30:58;6.25;;;1.42;;
56081;SDS011;41957;52.060;5.138;2022-12-07T15:33:23;5.13;;;1.50;;
56081;SDS011;41957;52.060;5.138;2022-12-07T15:35:49;6.43;;;1.40;;
56081;SDS011;41957;52.060;5.138;2022-12-07T15:38:14;5.97;;;1.42;;
56081;SDS011;41957;52.060;5.138;2022-12-07T15:40:39;6.15;;;1.58;;
56081;SDS011;41957;52.060;5.138;2022-12-07T15:43:05;4.45;;;1.30;;
56081;SDS011;41957;52.060;5.138;2022-12-07T15:45:50;4.63;;;1.30;;
56081;SDS011;41957;52.060;5.138;2022-12-07T15:48:15;6.95;;;1.52;;
56081;SDS011;41957;52.060;5.138;2022-12-07T15:50:41;6.60;;;1.55;;
56081;SDS011;41957;52.060;5.138;2022-12-07T15:53:06;5.10;;;1.50;;
56081;SDS011;41957;52.060;5.138;2022-12-07T15:55:31;5.93;;;1.52;;
56081;SDS011;41957;52.060;5.138;2022-12-07T15:57:57;5.85;;;1.42;;
56081;SDS011;41957;52.060;5.138;2022-12-07T16:00:22;6.45;;;1.60;;
56081;SDS011;41957;52.060;5.138;2022-12-07T16:02:47;6.13;;;1.50;;
56081;SDS011;41957;52.060;5.138;2022-12-07T16:05:13;5.85;;;1.60;;
56081;SDS011;41957;52.060;5.138;2022-12-07T16:07:39;5.22;;;1.38;;
56081;SDS011;41957;52.060;5.138;2022-12-07T16:10:04;5.78;;;1.40;;
56081;SDS011;41957;52.060;5.138;2022-12-07T16:12:30;7.10;;;1.55;;
56081;SDS011;41957;52.060;5.138;2022-12-07T16:14:55;7.78;;;2.13;;
56081;SDS011;41957;52.060;5.138;2022-12-07T16:17:21;9.40;;;2.30;;
56081;SDS011;41957;52.060;5.138;2022-12-07T16:19:46;11.98;;;2.50;;
56081;SDS011;41957;52.060;5.138;2022-12-07T16:22:11;10.68;;;2.60;;
56081;SDS011;41957;52.060;5.138;2022-12-07T16:24:37;13.35;;;3.03;;
56081;SDS011;41957;52.060;5.138;2022-12-07T16:27:02;11.88;;;2.85;;
56081;SDS011;41957;52.060;5.138;2022-12-07T16:29:27;12.23;;;2.70;;
56081;SDS011;41957;52.060;5.138;2022-12-07T16:31:53;16.38;;;2.80;;
56081;SDS011;41957;52.060;5.138;2022-12-07T16:34:18;13.52;;;2.72;;
56081;SDS011;41957;52.060;5.138;2022-12-07T16:36:43;10.77;;;2.60;;
56081;SDS011;41957;52.060;5.138;2022-12-07T16:39:09;11.13;;;2.55;;
56081;SDS011;41957;52.060;5.138;2022-12-07T16:41:35;13.85;;;2.53;;
56081;SDS011;41957;52.060;5.138;2022-12-07T16:44:02;10.93;;;2.53;;
56081;SDS011;41957;52.060;5.138;2022-12-07T16:46:29;8.57;;;2.30;;
56081;SDS011;41957;52.060;5.138;2022-12-07T16:48:54;11.63;;;2.35;;
56081;SDS011;41957;52.060;5.138;2022-12-07T16:51:20;10.93;;;2.35;;
56081;SDS011;41957;52.060;5.138;2022-12-07T16:53:45;8.48;;;2.08;;
56081;SDS011;41957;52.060;5.138;2022-12-07T16:56:11;12.15;;;2.20;;